createdAt,value
2017-08-05T00:00:24.151Z,54.67
2017-08-05T00:02:55.762Z,54.70
2017-08-05T00:05:29.424Z,54.74
2017-08-05T00:08:04.691Z,54.85
2017-08-05T00:10:36.225Z,54.95
2017-08-05T00:13:07.541Z,55.25
2017-08-05T00:15:38.613Z,55.49
2017-08-05T00:18:09.713Z,55.92
2017-08-05T00:20:41.036Z,56.01
2017-08-05T00:23:12.085Z,56.12
2017-08-05T00:25:43.167Z,56.27
2017-08-05T00:28:14.493Z,56.30
2017-08-05T00:30:45.533Z,56.66
2017-08-05T00:33:16.671Z,56.87
2017-08-05T00:35:47.994Z,57.02
2017-08-05T00:38:19.315Z,57.11
2017-08-05T00:40:50.653Z,57.17
2017-08-05T00:43:22.402Z,57.27
2017-08-05T00:45:54.997Z,57.21
2017-08-05T00:48:26.081Z,57.19
2017-08-05T00:50:57.770Z,57.33
2017-08-05T00:53:29.142Z,57.56
2017-08-05T00:56:00.411Z,57.66
2017-08-05T00:58:31.835Z,57.71
2017-08-05T01:01:04.055Z,57.92
2017-08-05T01:03:35.139Z,58.24
2017-08-05T01:06:09.237Z,58.35
2017-08-05T01:08:40.274Z,58.36
2017-08-05T01:11:12.777Z,58.70
2017-08-05T01:13:43.904Z,58.67
2017-08-05T01:16:14.990Z,59.01
2017-08-05T01:18:46.047Z,58.86
2017-08-05T01:21:17.114Z,58.85
2017-08-05T01:26:25.683Z,59.17
2017-08-05T01:28:56.718Z,59.28
2017-08-05T01:31:28.051Z,59.32
2017-08-05T01:33:59.084Z,59.36
2017-08-05T01:36:30.153Z,59.45
2017-08-05T01:39:01.600Z,59.71
2017-08-05T01:41:32.673Z,59.70
2017-08-05T01:44:04.246Z,59.66
2017-08-05T01:46:35.709Z,59.65
2017-08-05T01:49:07.043Z,59.84
2017-08-05T01:51:41.481Z,59.81
2017-08-05T01:54:15.417Z,59.82
2017-08-05T01:56:46.526Z,60.04
2017-08-05T01:59:18.636Z,60.13
2017-08-05T02:01:49.824Z,60.03
2017-08-05T02:04:21.755Z,59.96
2017-08-05T02:06:53.173Z,60.10
2017-08-05T02:09:25.854Z,60.39
2017-08-05T02:11:57.528Z,60.37
2017-08-05T02:14:28.570Z,60.38
2017-08-05T02:16:59.960Z,60.37
2017-08-05T02:19:31.032Z,60.28
2017-08-05T02:22:02.627Z,60.18
2017-08-05T02:24:33.676Z,60.18
2017-08-05T02:27:04.769Z,60.44
2017-08-05T02:29:36.074Z,60.20
2017-08-05T02:32:07.120Z,60.23
2017-08-05T02:34:38.185Z,60.34
2017-08-05T02:37:09.681Z,60.22
2017-08-05T02:39:44.815Z,60.17
2017-08-05T02:42:15.906Z,60.11
2017-08-05T02:47:42.706Z,60.12
2017-08-05T02:50:13.958Z,60.17
2017-08-05T02:52:45.204Z,60.35
2017-08-05T02:55:21.562Z,60.16
2017-08-05T02:57:57.222Z,60.06
2017-08-05T03:00:30.366Z,60.03
2017-08-05T03:03:03.385Z,60.12
2017-08-05T03:05:38.403Z,60.23
2017-08-05T03:08:10.325Z,60.41
2017-08-05T03:10:41.412Z,60.63
2017-08-05T03:13:12.506Z,60.90
2017-08-05T03:15:43.572Z,61.12
2017-08-05T03:18:14.825Z,61.17
2017-08-05T03:20:46.532Z,61.16
2017-08-05T03:23:17.649Z,61.29
2017-08-05T03:25:48.683Z,61.15
2017-08-05T03:28:20.048Z,60.90
2017-08-05T03:30:51.082Z,61.03
2017-08-05T03:33:22.152Z,61.29
2017-08-05T03:35:53.214Z,61.21
2017-08-05T03:38:24.279Z,61.69
2017-08-05T03:40:55.349Z,61.81
2017-08-05T03:43:26.426Z,62.05
2017-08-05T03:45:57.770Z,62.37
2017-08-05T03:48:39.552Z,62.56
2017-08-05T03:51:11.743Z,62.76
2017-08-05T03:53:42.988Z,62.73
2017-08-05T03:56:14.156Z,62.79
2017-08-05T03:58:45.532Z,62.88
2017-08-05T04:01:16.912Z,62.85
2017-08-05T04:03:48.135Z,62.82
2017-08-05T04:06:19.520Z,62.66
2017-08-05T04:08:50.607Z,62.55
2017-08-05T04:11:21.688Z,62.45
2017-08-05T04:13:53.174Z,62.21
2017-08-05T04:16:25.354Z,62.06
2017-08-05T04:18:57.020Z,61.94
2017-08-05T04:21:29.327Z,61.79
2017-08-05T04:24:00.396Z,61.51
2017-08-05T04:26:33.604Z,61.20
2017-08-05T04:29:05.775Z,61.06
2017-08-05T04:31:36.885Z,60.79
2017-08-05T04:34:08.480Z,60.72
2017-08-05T04:36:39.514Z,60.68
2017-08-05T04:39:10.600Z,60.43
2017-08-05T04:41:41.919Z,60.11
2017-08-05T04:44:12.961Z,59.83
2017-08-05T04:46:50.020Z,59.38
2017-08-05T04:49:30.557Z,59.28
2017-08-05T04:52:07.995Z,59.12
2017-08-05T04:54:39.392Z,58.96
2017-08-05T04:57:10.612Z,58.50
2017-08-05T04:59:41.891Z,58.15
2017-08-05T05:02:13.356Z,58.04
2017-08-05T05:04:44.493Z,57.71
2017-08-05T05:07:15.727Z,57.57
2017-08-05T05:09:46.879Z,57.68
2017-08-05T05:12:19.553Z,58.08
2017-08-05T05:14:50.645Z,57.81
2017-08-05T05:17:21.795Z,57.82
2017-08-05T05:19:53.189Z,57.68
2017-08-05T05:22:24.372Z,57.89
2017-08-05T05:24:55.841Z,57.90
2017-08-05T05:27:27.190Z,57.99
2017-08-05T05:29:58.217Z,57.82
2017-08-05T05:32:29.560Z,57.15
2017-08-05T05:35:00.628Z,56.90
2017-08-05T05:37:31.673Z,56.13
2017-08-05T05:40:04.925Z,55.88
2017-08-05T05:42:36.062Z,55.85
2017-08-05T05:45:07.130Z,55.97
2017-08-05T05:47:38.510Z,56.26
2017-08-05T05:50:12.376Z,56.38
2017-08-05T05:52:43.526Z,56.51
2017-08-05T05:55:14.879Z,56.45
2017-08-05T05:57:45.961Z,56.98
2017-08-05T06:00:17.971Z,57.21
2017-08-05T06:02:49.317Z,56.74
2017-08-05T06:05:21.199Z,57.01
2017-08-05T06:07:52.394Z,57.54
2017-08-05T06:10:23.722Z,57.46
2017-08-05T06:12:54.818Z,57.01
2017-08-05T06:15:26.123Z,56.64
2017-08-05T06:17:57.507Z,56.16
2017-08-05T06:20:28.584Z,55.69
2017-08-05T06:22:59.688Z,55.80
2017-08-05T06:25:31.020Z,55.10
2017-08-05T06:28:02.780Z,54.42
2017-08-05T06:30:33.841Z,53.78
2017-08-05T06:33:04.985Z,53.29
2017-08-05T06:35:36.368Z,53.41
2017-08-05T06:38:08.732Z,53.25
2017-08-05T06:40:39.805Z,53.00
2017-08-05T06:43:11.175Z,52.55
2017-08-05T06:45:42.212Z,52.07
2017-08-05T06:48:14.359Z,52.20
2017-08-05T06:50:46.116Z,52.23
2017-08-05T06:53:17.187Z,51.61
2017-08-05T06:55:49.185Z,50.91
2017-08-05T06:58:24.537Z,50.15
2017-08-05T07:00:56.166Z,50.47
2017-08-05T07:03:29.105Z,51.47
2017-08-05T07:06:03.140Z,52.10
2017-08-05T07:08:36.265Z,52.03
2017-08-05T07:11:12.171Z,51.54
2017-08-05T07:13:45.022Z,51.06
2017-08-05T07:16:19.265Z,51.71
2017-08-05T07:18:52.041Z,51.31
2017-08-05T07:21:23.400Z,50.90
2017-08-05T07:23:54.737Z,50.58
2017-08-05T07:26:26.947Z,48.93
2017-08-05T07:28:59.181Z,48.14
2017-08-05T07:31:30.269Z,48.27
2017-08-05T07:34:22.390Z,48.71
2017-08-05T07:39:37.796Z,50.06
2017-08-05T07:42:12.340Z,50.65
2017-08-05T07:44:43.725Z,51.24
2017-08-05T07:47:15.108Z,51.78
2017-08-05T07:49:48.008Z,51.46
2017-08-05T07:52:21.698Z,51.69
2017-08-05T07:54:54.636Z,51.47
2017-08-05T07:57:29.575Z,50.99
2017-08-05T08:00:05.189Z,50.95
2017-08-05T08:02:38.110Z,51.02
2017-08-05T08:05:11.540Z,50.87
2017-08-05T08:07:42.631Z,50.41
2017-08-05T08:10:16.789Z,51.42
2017-08-05T08:12:47.827Z,51.38
2017-08-05T08:15:19.935Z,51.65
2017-08-05T08:17:52.945Z,51.22
2017-08-05T08:20:26.453Z,50.41
2017-08-05T08:22:57.631Z,50.28
2017-08-05T08:25:29.078Z,49.75
2017-08-05T08:28:00.230Z,49.63
2017-08-05T08:30:31.249Z,48.93
2017-08-05T08:33:03.671Z,49.88
2017-08-05T08:35:34.837Z,48.50
2017-08-05T08:38:07.200Z,47.57
2017-08-05T08:40:38.270Z,47.26
2017-08-05T08:43:09.542Z,47.57
2017-08-05T08:45:40.831Z,47.26
2017-08-05T08:48:11.866Z,47.16
2017-08-05T08:50:44.596Z,47.61
2017-08-05T08:53:16.223Z,48.60
2017-08-05T08:55:47.383Z,48.68
2017-08-05T08:58:18.702Z,48.89
2017-08-05T09:00:49.723Z,47.88
2017-08-05T09:03:20.767Z,48.01
2017-08-05T09:05:52.116Z,47.15
2017-08-05T09:08:23.202Z,47.41
2017-08-05T09:10:56.220Z,47.15
2017-08-05T09:13:27.610Z,47.03
2017-08-05T09:15:58.660Z,46.77
2017-08-05T09:18:31.861Z,45.65
2017-08-05T09:21:03.796Z,45.75
2017-08-05T09:23:34.858Z,45.79
2017-08-05T09:26:06.208Z,44.68
2017-08-05T09:28:37.903Z,44.01
2017-08-05T09:31:10.424Z,43.44
2017-08-05T09:33:42.225Z,43.29
2017-08-05T09:36:13.268Z,42.83
2017-08-05T09:38:45.006Z,42.87
2017-08-05T09:41:16.460Z,43.66
2017-08-05T09:43:47.784Z,44.15
2017-08-05T09:46:20.534Z,44.91
2017-08-05T09:48:53.404Z,44.85
2017-08-05T09:51:24.444Z,43.88
2017-08-05T09:53:56.177Z,44.52
2017-08-05T09:56:28.551Z,43.90
2017-08-05T09:59:07.314Z,43.02
2017-08-05T10:01:44.252Z,42.49
2017-08-05T10:04:23.989Z,42.39
2017-08-05T10:07:00.272Z,42.07
2017-08-05T10:09:35.426Z,42.54
2017-08-05T10:12:13.955Z,41.92
2017-08-05T10:14:46.361Z,41.89
2017-08-05T10:17:18.399Z,41.21
2017-08-05T10:19:49.467Z,40.54
2017-08-05T10:22:21.988Z,40.04
2017-08-05T10:24:53.988Z,39.80
2017-08-05T10:27:26.841Z,39.72
2017-08-05T10:29:59.747Z,40.77
2017-08-05T10:32:31.397Z,40.75
2017-08-05T10:35:04.377Z,40.67
2017-08-05T10:37:35.455Z,40.87
2017-08-05T10:40:07.289Z,40.85
2017-08-05T10:42:38.701Z,41.30
2017-08-05T10:45:09.992Z,42.44
2017-08-05T10:47:41.056Z,42.60
2017-08-05T10:50:17.236Z,41.77
2017-08-05T10:52:48.639Z,41.26
2017-08-05T10:55:32.214Z,40.35
2017-08-05T10:58:07.391Z,40.19
2017-08-05T11:00:41.517Z,40.60
2017-08-05T11:03:17.800Z,41.65
2017-08-05T11:05:50.510Z,41.83
2017-08-05T11:08:23.651Z,41.45
2017-08-05T11:11:05.818Z,41.29
2017-08-05T11:13:38.992Z,40.57
2017-08-05T11:16:12.977Z,41.62
2017-08-05T11:18:44.255Z,41.60
2017-08-05T11:21:19.017Z,42.93
2017-08-05T11:23:50.719Z,44.18
2017-08-05T11:26:22.785Z,45.23
2017-08-05T11:28:57.187Z,45.91
2017-08-05T11:31:30.530Z,46.99
2017-08-05T11:34:07.084Z,48.11
2017-08-05T11:36:40.941Z,49.81
2017-08-05T11:39:17.905Z,50.34
2017-08-05T11:41:52.866Z,51.73
2017-08-05T11:44:26.500Z,54.69
2017-08-05T11:47:00.268Z,55.51
2017-08-05T11:49:33.398Z,55.85
2017-08-05T11:52:08.427Z,56.00
2017-08-05T11:54:44.232Z,55.89
2017-08-05T11:57:18.079Z,55.67
2017-08-05T11:59:50.075Z,55.42
2017-08-05T12:02:23.574Z,56.21
2017-08-05T12:04:56.229Z,56.54
2017-08-05T12:07:30.884Z,57.23
2017-08-05T12:10:05.235Z,58.42
2017-08-05T12:12:42.054Z,59.98
2017-08-05T12:15:18.888Z,59.42
2017-08-05T12:17:52.176Z,59.57
2017-08-05T12:20:29.412Z,57.15
2017-08-05T12:23:07.509Z,53.79
2017-08-05T12:25:42.730Z,50.21
2017-08-05T12:28:17.781Z,48.97
2017-08-05T12:30:49.551Z,50.34
2017-08-05T12:33:21.916Z,49.68
2017-08-05T12:35:55.360Z,48.10
2017-08-05T12:38:27.675Z,48.51
2017-08-05T12:41:01.312Z,48.68
2017-08-05T12:43:33.078Z,48.95
2017-08-05T12:46:07.598Z,48.34
2017-08-05T12:48:39.099Z,48.37
2017-08-05T12:51:12.790Z,47.95
2017-08-05T12:53:46.020Z,47.03
2017-08-05T12:56:36.435Z,46.83
2017-08-05T12:59:15.057Z,44.67
2017-08-05T13:01:46.506Z,43.32
2017-08-05T13:04:22.489Z,41.54
2017-08-05T13:06:57.459Z,39.57
2017-08-05T13:09:32.482Z,38.26
2017-08-05T13:12:04.842Z,36.88
2017-08-05T13:14:39.064Z,36.82
2017-08-05T13:17:15.185Z,33.77
2017-08-05T13:19:48.771Z,32.44
2017-08-05T13:22:22.841Z,34.37
2017-08-05T13:24:56.458Z,38.29
2017-08-05T13:27:32.482Z,44.72
2017-08-05T13:30:10.465Z,49.31
2017-08-05T13:32:44.864Z,52.19
2017-08-05T13:35:18.681Z,51.01
2017-08-05T13:37:55.161Z,44.81
2017-08-05T13:40:34.506Z,37.91
2017-08-05T13:43:12.231Z,33.63
2017-08-05T13:45:46.627Z,30.00
2017-08-05T13:48:18.466Z,27.47
2017-08-05T13:50:50.919Z,25.26
2017-08-05T13:53:23.477Z,24.41
2017-08-05T13:55:54.621Z,24.33
2017-08-05T13:58:30.396Z,26.36
2017-08-05T14:01:07.322Z,26.98
2017-08-05T14:03:41.305Z,26.55
2017-08-05T14:06:18.715Z,26.82
2017-08-05T14:08:54.484Z,26.64
2017-08-05T14:11:26.925Z,27.09
2017-08-05T14:14:00.379Z,28.69
2017-08-05T14:16:40.332Z,33.43
2017-08-05T14:19:15.619Z,35.13
2017-08-05T14:21:46.977Z,36.35
2017-08-05T14:24:18.096Z,35.82
2017-08-05T14:26:50.212Z,35.00
2017-08-05T14:29:24.271Z,35.78
2017-08-05T14:31:56.072Z,36.78
2017-08-05T14:34:27.457Z,37.62
2017-08-05T14:37:00.822Z,39.15
2017-08-05T14:39:35.187Z,37.41
2017-08-05T14:42:14.461Z,31.17
2017-08-05T14:44:46.473Z,25.49
2017-08-05T14:47:18.617Z,21.98
2017-08-05T14:49:50.791Z,21.24
2017-08-05T14:52:25.409Z,22.09
2017-08-05T14:55:36.257Z,24.08
2017-08-05T14:58:15.149Z,23.00
2017-08-05T15:00:49.052Z,21.83
2017-08-05T15:03:22.025Z,21.15
2017-08-05T15:05:55.587Z,19.81
2017-08-05T15:08:30.387Z,18.87
2017-08-05T15:11:06.333Z,18.71
2017-08-05T15:13:41.757Z,18.13
2017-08-05T15:16:15.147Z,18.31
2017-08-05T15:18:49.250Z,19.87
2017-08-05T15:21:21.565Z,21.87
2017-08-05T15:23:57.733Z,22.45
2017-08-05T15:26:31.664Z,22.04
2017-08-05T15:29:09.735Z,23.15
2017-08-05T15:31:44.522Z,25.19
2017-08-05T15:34:20.494Z,27.83
2017-08-05T15:36:54.339Z,29.72
2017-08-05T15:39:28.068Z,30.31
2017-08-05T15:42:04.485Z,30.91
2017-08-05T15:44:36.053Z,31.18
2017-08-05T15:47:12.007Z,32.16
2017-08-05T15:49:44.219Z,32.88
2017-08-05T15:52:24.143Z,33.61
2017-08-05T15:55:01.760Z,34.49
2017-08-05T15:57:36.042Z,34.79
2017-08-05T16:00:18.526Z,35.39
2017-08-05T16:02:51.879Z,36.18
2017-08-05T16:05:26.636Z,36.93
2017-08-05T16:08:02.914Z,36.89
2017-08-05T16:10:34.904Z,36.80
2017-08-05T16:13:08.079Z,37.32
2017-08-05T16:15:39.895Z,37.48
2017-08-05T16:18:11.003Z,37.89
2017-08-05T16:20:42.040Z,37.68
2017-08-05T16:23:13.323Z,38.13
2017-08-05T16:25:44.760Z,38.48
2017-08-05T16:28:16.855Z,38.79
2017-08-05T16:30:50.045Z,39.32
2017-08-05T16:33:25.140Z,39.72
2017-08-05T16:35:59.345Z,39.99
2017-08-05T16:38:30.372Z,39.84
2017-08-05T16:41:03.987Z,39.90
2017-08-05T16:43:35.414Z,40.59
2017-08-05T16:46:08.427Z,40.82
2017-08-05T16:48:40.151Z,40.84
2017-08-05T16:51:12.657Z,40.65
2017-08-05T16:53:44.659Z,40.81
2017-08-05T16:56:18.929Z,40.87
2017-08-05T16:58:52.491Z,40.97
2017-08-05T17:01:23.790Z,40.81
2017-08-05T17:03:58.829Z,40.99
2017-08-05T17:06:30.462Z,41.42
2017-08-05T17:09:03.061Z,41.90
2017-08-05T17:11:34.471Z,42.07
2017-08-05T17:14:08.379Z,42.01
2017-08-05T17:16:41.403Z,42.04
2017-08-05T17:19:14.413Z,42.06
2017-08-05T17:21:46.448Z,42.07
2017-08-05T17:24:18.689Z,41.63
2017-08-05T17:26:50.627Z,41.26
2017-08-05T17:29:22.165Z,41.17
2017-08-05T17:31:55.629Z,41.19
2017-08-05T17:34:28.053Z,40.99
2017-08-05T17:37:00.579Z,41.01
2017-08-05T17:39:31.984Z,40.95
2017-08-05T17:42:06.412Z,40.98
2017-08-05T17:44:38.785Z,41.09
2017-08-05T17:47:10.441Z,40.91
2017-08-05T17:49:41.858Z,40.35
2017-08-05T17:52:12.904Z,39.56
2017-08-05T17:54:44.208Z,39.05
2017-08-05T17:57:16.887Z,38.43
2017-08-05T17:59:47.967Z,38.98
2017-08-05T18:02:20.992Z,38.83
2017-08-05T18:04:54.091Z,39.30
2017-08-05T18:07:25.414Z,39.56
2017-08-05T18:09:57.549Z,40.23
2017-08-05T18:12:29.486Z,40.65
2017-08-05T18:15:01.202Z,41.06
2017-08-05T18:17:36.351Z,41.27
2017-08-05T18:20:14.566Z,41.68
2017-08-05T18:22:49.769Z,42.28
2017-08-05T18:25:44.454Z,42.28
2017-08-05T18:31:50.230Z,43.11
2017-08-05T18:34:21.865Z,43.34
2017-08-05T18:36:53.735Z,43.65
2017-08-05T18:39:24.978Z,43.76
2017-08-05T18:41:56.075Z,44.18
2017-08-05T18:44:27.503Z,44.36
2017-08-05T18:46:58.790Z,44.49
2017-08-05T18:49:30.960Z,44.90
2017-08-05T18:52:03.977Z,44.87
2017-08-05T18:54:35.060Z,44.91
2017-08-05T18:57:07.191Z,45.22
2017-08-05T18:59:38.324Z,45.47
2017-08-05T19:02:09.542Z,45.55
2017-08-05T19:04:42.032Z,45.68
2017-08-05T19:07:13.220Z,46.00
2017-08-05T19:09:44.400Z,46.14
2017-08-05T19:12:16.092Z,46.07
2017-08-05T19:14:48.018Z,46.60
2017-08-05T19:17:19.551Z,46.64
2017-08-05T19:19:52.179Z,46.78
2017-08-05T19:22:24.357Z,47.28
2017-08-05T19:24:56.152Z,47.63
2017-08-05T19:27:27.389Z,47.57
2017-08-05T19:29:59.860Z,47.66
2017-08-05T19:32:31.021Z,47.71
2017-08-05T19:35:02.417Z,47.72
2017-08-05T19:37:35.124Z,47.96
2017-08-05T19:40:06.822Z,48.32
2017-08-05T19:42:38.571Z,48.08
2017-08-05T19:45:10.289Z,48.16
2017-08-05T19:47:42.051Z,48.33
2017-08-05T19:50:13.215Z,48.46
2017-08-05T19:52:45.041Z,48.59
2017-08-05T19:55:17.917Z,48.73
2017-08-05T19:57:50.896Z,48.82
2017-08-05T20:00:23.317Z,48.68
2017-08-05T20:02:54.972Z,48.84
2017-08-05T20:05:26.479Z,48.93
2017-08-05T20:07:57.788Z,49.14
2017-08-05T20:10:28.866Z,48.85
2017-08-05T20:13:00.757Z,49.11
2017-08-05T20:15:32.957Z,49.15
2017-08-05T20:18:05.924Z,49.12
2017-08-05T20:20:37.712Z,49.40
2017-08-05T20:23:08.754Z,49.56
2017-08-05T20:25:41.116Z,49.69
2017-08-05T20:28:12.953Z,49.82
2017-08-05T20:30:44.799Z,50.00
2017-08-05T20:33:15.912Z,50.11
2017-08-05T20:35:47.269Z,50.27
2017-08-05T20:38:18.841Z,50.56
2017-08-05T20:40:50.261Z,50.65
2017-08-05T20:43:22.240Z,50.63
2017-08-05T20:45:53.712Z,50.52
2017-08-05T20:48:24.791Z,50.53
2017-08-05T20:50:56.400Z,50.67
2017-08-05T20:53:28.105Z,50.63
2017-08-05T20:55:59.328Z,50.52
2017-08-05T20:58:30.717Z,50.67
2017-08-05T21:01:02.107Z,50.86
2017-08-05T21:03:33.613Z,51.12
2017-08-05T21:06:06.663Z,51.27
2017-08-05T21:08:39.648Z,51.30
2017-08-05T21:11:11.240Z,51.44
2017-08-05T21:13:42.675Z,51.73
2017-08-05T21:16:13.869Z,52.12
2017-08-05T21:18:45.542Z,52.24
2017-08-05T21:21:16.711Z,52.32
2017-08-05T21:23:48.983Z,52.46
2017-08-05T21:26:20.158Z,52.51
2017-08-05T21:28:51.454Z,52.65
2017-08-05T21:31:22.807Z,52.66
2017-08-05T21:33:54.699Z,52.62
2017-08-05T21:36:25.921Z,52.70
2017-08-05T21:38:58.469Z,52.65
2017-08-05T21:41:29.585Z,52.74
2017-08-05T21:44:00.952Z,52.71
2017-08-05T21:46:32.536Z,52.56
2017-08-05T21:49:03.641Z,52.61
2017-08-05T21:51:35.661Z,52.69
2017-08-05T21:54:08.978Z,52.82
2017-08-05T21:56:40.140Z,52.96
2017-08-05T21:59:11.599Z,53.18
2017-08-05T22:01:43.521Z,53.59
2017-08-05T22:04:14.872Z,53.81
2017-08-05T22:06:46.738Z,54.06
2017-08-05T22:09:17.918Z,54.19
2017-08-05T22:11:49.611Z,54.35
2017-08-05T22:14:20.718Z,54.44
2017-08-05T22:16:52.347Z,54.90
2017-08-05T22:19:24.716Z,54.98
2017-08-05T22:21:56.122Z,54.94
2017-08-05T22:24:27.471Z,54.84
2017-08-05T22:26:59.715Z,55.08
2017-08-05T22:29:31.476Z,55.25
2017-08-05T22:32:03.401Z,55.60
2017-08-05T22:34:35.986Z,55.96
2017-08-05T22:37:07.103Z,56.16
2017-08-05T22:39:38.729Z,56.11
2017-08-05T22:42:10.849Z,56.37
2017-08-05T22:44:42.035Z,56.67
2017-08-05T22:47:13.651Z,56.87
2017-08-05T22:49:45.431Z,56.75
2017-08-05T22:52:18.098Z,56.91
2017-08-05T22:54:49.274Z,57.02
2017-08-05T22:57:20.428Z,57.19
2017-08-05T22:59:52.242Z,57.26
2017-08-05T23:02:24.447Z,57.37
2017-08-05T23:04:55.575Z,57.37
2017-08-05T23:07:26.936Z,57.34
2017-08-05T23:09:58.033Z,57.26
2017-08-05T23:12:29.578Z,57.26
2017-08-05T23:15:01.146Z,57.38
2017-08-05T23:17:32.547Z,57.24
2017-08-05T23:20:07.217Z,56.92
2017-08-05T23:22:40.325Z,56.43
2017-08-05T23:25:13.961Z,56.29
2017-08-05T23:27:46.362Z,56.43
2017-08-05T23:30:18.133Z,56.20
2017-08-05T23:32:49.774Z,56.37
2017-08-05T23:35:21.492Z,56.46
2017-08-05T23:37:53.085Z,56.54
2017-08-05T23:40:24.949Z,56.57
2017-08-05T23:42:57.317Z,56.58
2017-08-05T23:45:35.645Z,56.55
2017-08-05T23:48:10.259Z,56.79
2017-08-05T23:50:44.327Z,56.99
2017-08-05T23:53:17.891Z,56.82
2017-08-05T23:55:49.340Z,56.89
2017-08-05T23:58:20.774Z,56.94
